USCGC Polar Star — NBTM — position and weather

sailwx.info

Track history (hours):
 
Tides and Currents Weather Stations Pressure Air Temp Water Temp Dewpoint Dewpoint Depression Visibility Wind Speed Wind Dir Waves Ship Positions

Oceanographic research ship USCGC Polar Star (USA)

Detailed information on ship capabilities available from University of Delaware's Ocean Information Center and ARCUS's ALIAS (Arctic Logistics Information and Support) project.

Last reported at 2017-Oct-05 17:20 UTC. Time now 2017-Oct-18 15:01 UTC.
Position N 47°35' W 122°21'.
Warning: this ship's position is 12 days out of date.

Type: Military. MMSI: 367255000.

Date/timePositionNaut miles runAvg speedWind from/ knotsBaromVisibWave heightAir tempDewpointWater temp
2017-Oct-05 17:20N 47°35' W 122°21'  
2017-Sep-28 18:07N 47°35' W 122°21'0 0.0
2017-Sep-28 17:58N 47°35' W 122°21'0 0.0
2017-Sep-28 17:28N 47°35' W 122°21'0 0.0
2017-Sep-28 16:59N 47°35' W 122°21'1 1.3
2017-Sep-28 16:31N 47°36' W 122°21'612.1
2017-Sep-28 16:01N 47°40' W 122°28'815.3
2017-Sep-28 15:30N 47°47' W 122°27'815.6
2017-Sep-28 15:00N 47°55' W 122°30'815.2
2017-Sep-28 14:30N 48°00' W 122°38'1013.3
2017-Sep-28 13:47N 48°09' W 122°44'513.1
2017-Sep-28 13:25N 48°11' W 122°51'4 8.1
2017-Sep-28 12:58N 48°11' W 122°56'3 7.7
2017-Sep-28 12:30N 48°12' W 123°02'4 8.1
2017-Sep-28 11:58N 48°12' W 123°08'4 8.8
2017-Sep-28 11:30N 48°12' W 123°14'4 7.9
2017-Sep-28 11:00N 48°13' W 123°20'4 7.5
2017-Sep-28 10:30N 48°13' W 123°26'4 8.3
2017-Sep-28 10:00N 48°13' W 123°32'4 8.1
2017-Sep-28 09:30N 48°13' W 123°38'4 8.1
2017-Sep-28 08:59N 48°13' W 123°44'4 7.9
2017-Sep-28 08:29N 48°13' W 123°50'4 7.9
2017-Sep-28 07:59N 48°14' W 123°56'4 7.5
2017-Sep-28 07:30N 48°15' W 124°01'4 7.4
2017-Sep-28 07:00N 48°17' W 124°06'4 7.6
2017-Sep-28 06:30N 48°18' W 124°11'4 8.5
2017-Sep-28 06:00N 48°20' W 124°17'4 8.6
2017-Sep-28 05:30N 48°22' W 124°23'4 8.3
2017-Sep-28 05:00N 48°24' W 124°28'4 8.1
2017-Sep-28 04:30N 48°25' W 124°34'4 8.3
2017-Sep-28 04:00N 48°27' W 124°39'4 7.8
2017-Sep-28 03:30N 48°29' W 124°45'4 8.1
2017-Sep-28 02:58N 48°29' W 124°51'4 8.2
2017-Sep-28 02:28N 48°29' W 124°58'4 8.2
2017-Sep-28 01:57N 48°26' W 125°02'916.7
2017-Sep-28 01:25N 48°17' W 125°06'5414.9
2017-Sep-27 21:49N 47°24' W 125°08'8 8.1
2017-Sep-27 20:47N 47°15' W 125°07'310.1
2017-Sep-27 20:27N 47°12' W 125°07'4 8.5
2017-Sep-27 20:00N 47°08' W 125°08'5 9.4
2017-Sep-27 19:30N 47°03' W 125°07'816.6
2017-Sep-27 19:00N 46°55' W 125°06'917.0
2017-Sep-27 18:30N 46°47' W 125°06'917.1
2017-Sep-27 18:00N 46°38' W 125°06'816.9
2017-Sep-27 17:30N 46°30' W 125°05'917.0
2017-Sep-27 17:00N 46°22' W 125°01'816.9
2017-Sep-27 16:30N 46°13' W 125°00'1115.9
2017-Sep-27 15:50N 46°03' W 125°04'516.9
2017-Sep-27 15:30N 45°57' W 125°04'816.9
2017-Sep-27 15:00N 45°49' W 125°03'816.7
2017-Sep-27 14:30N 45°41' W 125°03'816.8
2017-Sep-27 14:00N 45°32' W 125°03'816.9
2017-Sep-27 13:30N 45°24' W 125°04'917.2
2017-Sep-27 13:00N 45°15' W 125°04'917.3
2017-Sep-27 12:30N 45°07' W 125°04'917.6
2017-Sep-27 12:00N 44°58' W 125°04'37114.3
2017-Sep-26 10:07N 38°51' W 123°51'217.8
2017-Sep-26 10:00N 38°49' W 123°50'917.4
2017-Sep-26 09:30N 38°42' W 123°44'816.9
2017-Sep-26 09:00N 38°34' W 123°39'816.0
2017-Sep-26 08:30N 38°27' W 123°35'816.3
2017-Sep-26 08:00N 38°20' W 123°30'816.5
2017-Sep-26 07:30N 38°13' W 123°24'5 9.8
2017-Sep-26 07:00N 38°09' W 123°21'2 5.0
2017-Sep-26 06:30N 38°07' W 123°19'2 4.7
2017-Sep-26 06:00N 38°05' W 123°17'612.9
2017-Sep-26 05:30N 38°00' W 123°11'816.3
2017-Sep-26 05:00N 37°56' W 123°03'816.5
2017-Sep-26 04:30N 37°52' W 122°54'714.6
2017-Sep-26 04:00N 37°48' W 122°46'4 8.3
2017-Sep-26 03:30N 37°46' W 122°41'713.0
2017-Sep-26 03:00N 37°47' W 122°33'3 5.2
2017-Sep-26 02:30N 37°46' W 122°36'4 8.7
2017-Sep-26 02:00N 37°46' W 122°41'3 6.8
2017-Sep-26 01:30N 37°46' W 122°37'612.5
2017-Sep-26 01:00N 37°49' W 122°30'510.0
2017-Sep-26 00:30N 37°49' W 122°24'2 3.0
2017-Sep-25 23:57N 37°47' W 122°23'0 0.0
2017-Sep-25 23:27N 37°47' W 122°23'0 0.0
2017-Sep-25 22:58N 37°47' W 122°23'0 0.0
2017-Sep-25 22:28N 37°47' W 122°23'0 0.0
2017-Sep-25 21:58N 37°47' W 122°23'0 0.0
2017-Sep-25 21:31N 37°47' W 122°23'0 0.0
2017-Sep-25 21:00N 37°47' W 122°23'0 0.0
2017-Sep-25 20:28N 37°47' W 122°23'0 0.0
2017-Sep-25 19:58N 37°47' W 122°23'0 0.0
2017-Sep-25 19:28N 37°47' W 122°23'0 0.0
2017-Sep-25 18:58N 37°47' W 122°23'0 0.0
2017-Sep-25 18:28N 37°47' W 122°23'0 0.0
2017-Sep-25 17:58N 37°47' W 122°23'0 0.0
2017-Sep-25 17:28N 37°47' W 122°23'  
Track history (hours):
 
Tides and Currents Weather Stations Pressure Air Temp Water Temp Dewpoint Dewpoint Depression Visibility Wind Speed Wind Dir Waves Ship Positions

Oceanographic research ship USCGC Polar Star (USA)

Detailed information on ship capabilities available from University of Delaware's Ocean Information Center and ARCUS's ALIAS (Arctic Logistics Information and Support) project.

Last reported at 2017-Oct-05 17:20 UTC. Time now 2017-Oct-18 15:01 UTC.
Position N 47°35' W 122°21'.
Warning: this ship's position is 12 days out of date.

Type: Military. MMSI: 367255000.

Date/timePositionNaut miles runAvg speedWind from/ knotsBaromVisibWave heightAir tempDewpointWater temp
2017-Oct-05 17:20N 47°35' W 122°21'  
2017-Sep-28 18:07N 47°35' W 122°21'0 0.0
2017-Sep-28 17:58N 47°35' W 122°21'0 0.0
2017-Sep-28 17:28N 47°35' W 122°21'0 0.0
2017-Sep-28 16:59N 47°35' W 122°21'1 1.3
2017-Sep-28 16:31N 47°36' W 122°21'612.1
2017-Sep-28 16:01N 47°40' W 122°28'815.3
2017-Sep-28 15:30N 47°47' W 122°27'815.6
2017-Sep-28 15:00N 47°55' W 122°30'815.2
2017-Sep-28 14:30N 48°00' W 122°38'1013.3
2017-Sep-28 13:47N 48°09' W 122°44'513.1
2017-Sep-28 13:25N 48°11' W 122°51'4 8.1
2017-Sep-28 12:58N 48°11' W 122°56'3 7.7
2017-Sep-28 12:30N 48°12' W 123°02'4 8.1
2017-Sep-28 11:58N 48°12' W 123°08'4 8.8
2017-Sep-28 11:30N 48°12' W 123°14'4 7.9
2017-Sep-28 11:00N 48°13' W 123°20'4 7.5
2017-Sep-28 10:30N 48°13' W 123°26'4 8.3
2017-Sep-28 10:00N 48°13' W 123°32'4 8.1
2017-Sep-28 09:30N 48°13' W 123°38'4 8.1
2017-Sep-28 08:59N 48°13' W 123°44'4 7.9
2017-Sep-28 08:29N 48°13' W 123°50'4 7.9
2017-Sep-28 07:59N 48°14' W 123°56'4 7.5
2017-Sep-28 07:30N 48°15' W 124°01'4 7.4
2017-Sep-28 07:00N 48°17' W 124°06'4 7.6
2017-Sep-28 06:30N 48°18' W 124°11'4 8.5
2017-Sep-28 06:00N 48°20' W 124°17'4 8.6
2017-Sep-28 05:30N 48°22' W 124°23'4 8.3
2017-Sep-28 05:00N 48°24' W 124°28'4 8.1
2017-Sep-28 04:30N 48°25' W 124°34'4 8.3
2017-Sep-28 04:00N 48°27' W 124°39'4 7.8
2017-Sep-28 03:30N 48°29' W 124°45'4 8.1
2017-Sep-28 02:58N 48°29' W 124°51'4 8.2
2017-Sep-28 02:28N 48°29' W 124°58'4 8.2
2017-Sep-28 01:57N 48°26' W 125°02'916.7
2017-Sep-28 01:25N 48°17' W 125°06'5414.9
2017-Sep-27 21:49N 47°24' W 125°08'8 8.1
2017-Sep-27 20:47N 47°15' W 125°07'310.1
2017-Sep-27 20:27N 47°12' W 125°07'4 8.5
2017-Sep-27 20:00N 47°08' W 125°08'5 9.4
2017-Sep-27 19:30N 47°03' W 125°07'816.6
2017-Sep-27 19:00N 46°55' W 125°06'917.0
2017-Sep-27 18:30N 46°47' W 125°06'917.1
2017-Sep-27 18:00N 46°38' W 125°06'816.9
2017-Sep-27 17:30N 46°30' W 125°05'917.0
2017-Sep-27 17:00N 46°22' W 125°01'816.9
2017-Sep-27 16:30N 46°13' W 125°00'1115.9
2017-Sep-27 15:50N 46°03' W 125°04'516.9
2017-Sep-27 15:30N 45°57' W 125°04'816.9
2017-Sep-27 15:00N 45°49' W 125°03'816.7
2017-Sep-27 14:30N 45°41' W 125°03'816.8
2017-Sep-27 14:00N 45°32' W 125°03'816.9
2017-Sep-27 13:30N 45°24' W 125°04'917.2
2017-Sep-27 13:00N 45°15' W 125°04'917.3
2017-Sep-27 12:30N 45°07' W 125°04'917.6
2017-Sep-27 12:00N 44°58' W 125°04'37114.3
2017-Sep-26 10:07N 38°51' W 123°51'217.8
2017-Sep-26 10:00N 38°49' W 123°50'917.4
2017-Sep-26 09:30N 38°42' W 123°44'816.9
2017-Sep-26 09:00N 38°34' W 123°39'816.0
2017-Sep-26 08:30N 38°27' W 123°35'816.3
2017-Sep-26 08:00N 38°20' W 123°30'816.5
2017-Sep-26 07:30N 38°13' W 123°24'5 9.8
2017-Sep-26 07:00N 38°09' W 123°21'2 5.0
2017-Sep-26 06:30N 38°07' W 123°19'2 4.7
2017-Sep-26 06:00N 38°05' W 123°17'612.9
2017-Sep-26 05:30N 38°00' W 123°11'816.3
2017-Sep-26 05:00N 37°56' W 123°03'816.5
2017-Sep-26 04:30N 37°52' W 122°54'714.6
2017-Sep-26 04:00N 37°48' W 122°46'4 8.3
2017-Sep-26 03:30N 37°46' W 122°41'713.0
2017-Sep-26 03:00N 37°47' W 122°33'3 5.2
2017-Sep-26 02:30N 37°46' W 122°36'4 8.7
2017-Sep-26 02:00N 37°46' W 122°41'3 6.8
2017-Sep-26 01:30N 37°46' W 122°37'612.5
2017-Sep-26 01:00N 37°49' W 122°30'510.0
2017-Sep-26 00:30N 37°49' W 122°24'2 3.0
2017-Sep-25 23:57N 37°47' W 122°23'0 0.0
2017-Sep-25 23:27N 37°47' W 122°23'0 0.0
2017-Sep-25 22:58N 37°47' W 122°23'0 0.0
2017-Sep-25 22:28N 37°47' W 122°23'0 0.0
2017-Sep-25 21:58N 37°47' W 122°23'0 0.0
2017-Sep-25 21:31N 37°47' W 122°23'0 0.0
2017-Sep-25 21:00N 37°47' W 122°23'0 0.0
2017-Sep-25 20:28N 37°47' W 122°23'0 0.0
2017-Sep-25 19:58N 37°47' W 122°23'0 0.0
2017-Sep-25 19:28N 37°47' W 122°23'0 0.0
2017-Sep-25 18:58N 37°47' W 122°23'0 0.0
2017-Sep-25 18:28N 37°47' W 122°23'0 0.0
2017-Sep-25 17:58N 37°47' W 122°23'0 0.0
2017-Sep-25 17:28N 37°47' W 122°23'  

Dump ship's entire track history